Terminal Aerodrome Forecast
Issued by NWS Wilmington, NC

Home | Current Version | Previous Version | Text Only | Print | Product List | Glossary On
Versions: 1 2 3 4 5 6 7 8 9 10 11 12 13 14 15 16
000
FTUS42 KILM 210521
TAFLBT
TAF
KLBT 210521Z 2106/2206 00000KT P6SM SKC
     FM210800 00000KT 4SM BR SKC
     FM211200 00000KT 1SM BR BKN006
     FM211500 09005KT P6SM SCT040 SCT250
     FM220000 15003KT P6SM SCT040 BKN250=

USA.gov is the U.S. government's official web portal to all federal, state and local government web resources and services.